createdAt,value
2022-07-29T00:01:47.044Z,21.75
2022-07-29T00:04:14.771Z,21.78
2022-07-29T00:06:41.515Z,21.75
2022-07-29T00:09:08.088Z,21.73
2022-07-29T00:11:34.493Z,21.69
2022-07-29T00:14:00.951Z,21.64
2022-07-29T00:16:28.026Z,21.67
2022-07-29T00:18:54.494Z,21.66
2022-07-29T00:21:20.908Z,21.64
2022-07-29T00:23:47.427Z,21.58
2022-07-29T00:26:13.902Z,21.55
2022-07-29T00:28:42.056Z,21.54
2022-07-29T00:31:08.406Z,21.54
2022-07-29T00:33:34.981Z,21.49
2022-07-29T00:36:01.334Z,21.51
2022-07-29T00:38:28.531Z,21.52
2022-07-29T00:40:55.201Z,21.50
2022-07-29T00:43:22.156Z,21.44
2022-07-29T00:45:49.205Z,21.45
2022-07-29T00:48:15.492Z,21.43
2022-07-29T00:50:41.869Z,21.38
2022-07-29T00:53:08.256Z,21.39
2022-07-29T00:55:34.731Z,21.40
2022-07-29T00:58:01.482Z,21.38
2022-07-29T01:00:27.931Z,21.36
2022-07-29T01:02:54.372Z,21.34
2022-07-29T01:05:21.743Z,21.35
2022-07-29T01:07:49.039Z,21.35
2022-07-29T01:10:15.399Z,21.31
2022-07-29T01:12:43.523Z,21.29
2022-07-29T01:15:10.166Z,21.27
2022-07-29T01:17:36.536Z,21.27
2022-07-29T01:20:03.036Z,21.25
2022-07-29T01:22:30.501Z,21.23
2022-07-29T01:24:56.831Z,21.22
2022-07-29T01:27:23.186Z,21.18
2022-07-29T01:29:50.688Z,21.19
2022-07-29T01:32:28.079Z,21.17
2022-07-29T01:34:55.410Z,21.08
2022-07-29T01:37:24.041Z,21.07
2022-07-29T01:39:52.895Z,21.09
2022-07-29T01:42:19.367Z,21.10
2022-07-29T01:44:46.104Z,21.10
2022-07-29T01:47:12.562Z,21.06
2022-07-29T01:49:39.108Z,21.06
2022-07-29T01:52:05.415Z,21.05
2022-07-29T01:54:31.798Z,21.03
2022-07-29T01:56:58.135Z,21.01
2022-07-29T01:59:25.053Z,21.03
2022-07-29T02:01:54.666Z,21.02
2022-07-29T02:04:29.337Z,20.99
2022-07-29T02:06:56.742Z,20.95
2022-07-29T02:09:23.241Z,20.93
2022-07-29T02:11:49.712Z,20.91
2022-07-29T02:14:16.518Z,20.91
2022-07-29T02:16:43.942Z,20.90
2022-07-29T02:19:10.729Z,20.88
2022-07-29T02:21:37.014Z,20.80
2022-07-29T02:24:03.620Z,20.82
2022-07-29T02:26:30.030Z,20.78
2022-07-29T02:28:56.440Z,20.78
2022-07-29T02:31:23.393Z,20.76
2022-07-29T02:33:50.371Z,20.76
2022-07-29T02:36:16.702Z,20.73
2022-07-29T02:38:43.056Z,20.73
2022-07-29T02:41:09.717Z,20.69
2022-07-29T02:43:36.994Z,20.67
2022-07-29T02:46:03.711Z,20.64
2022-07-29T02:48:30.219Z,20.66
2022-07-29T02:50:56.576Z,20.65
2022-07-29T02:53:23.706Z,20.60
2022-07-29T02:55:50.302Z,20.57
2022-07-29T02:58:16.668Z,20.57
2022-07-29T03:00:43.817Z,20.55
2022-07-29T03:03:10.417Z,20.51
2022-07-29T03:05:37.960Z,20.47
2022-07-29T03:08:12.016Z,20.51
2022-07-29T03:10:38.415Z,20.44
2022-07-29T03:13:04.736Z,20.40
2022-07-29T03:15:34.865Z,20.39
2022-07-29T03:18:01.397Z,20.38
2022-07-29T03:20:28.169Z,20.37
2022-07-29T03:22:54.612Z,20.37
2022-07-29T03:25:20.953Z,20.35
2022-07-29T03:27:47.362Z,20.34
2022-07-29T03:30:21.763Z,20.31
2022-07-29T03:32:48.329Z,20.31
2022-07-29T03:35:15.350Z,20.29
2022-07-29T03:37:41.653Z,20.29
2022-07-29T03:40:09.165Z,20.25
2022-07-29T03:42:36.470Z,20.24
2022-07-29T03:45:03.019Z,20.23
2022-07-29T03:47:49.829Z,20.17
2022-07-29T03:50:16.161Z,20.11
2022-07-29T03:52:42.525Z,20.09
2022-07-29T03:55:12.608Z,20.10
2022-07-29T03:57:38.899Z,20.10
2022-07-29T04:00:05.217Z,20.04
2022-07-29T04:02:32.152Z,20.06
2022-07-29T04:04:58.604Z,20.03
2022-07-29T04:07:24.957Z,20.02
2022-07-29T04:09:51.346Z,20.04
2022-07-29T04:12:17.891Z,20.02
2022-07-29T04:14:45.342Z,20.00
2022-07-29T04:17:11.675Z,20.03
2022-07-29T04:19:38.361Z,20.01
2022-07-29T04:22:04.755Z,19.99
2022-07-29T04:24:31.230Z,20.01
2022-07-29T04:26:57.507Z,20.01
2022-07-29T04:29:24.364Z,20.00
2022-07-29T04:31:51.913Z,20.00
2022-07-29T04:34:19.026Z,19.99
2022-07-29T04:36:45.782Z,20.00
2022-07-29T04:39:13.722Z,19.96
2022-07-29T04:41:41.573Z,19.98
2022-07-29T04:44:09.512Z,19.95
2022-07-29T04:46:36.031Z,19.93
2022-07-29T04:49:02.635Z,19.96
2022-07-29T04:51:29.341Z,19.96
2022-07-29T04:53:55.963Z,19.95
2022-07-29T04:56:22.406Z,19.94
2022-07-29T04:58:50.057Z,19.93
2022-07-29T05:01:16.831Z,19.97
2022-07-29T05:03:43.590Z,20.00
2022-07-29T05:06:11.255Z,20.00
2022-07-29T05:08:37.530Z,20.03
2022-07-29T05:14:08.298Z,20.01
2022-07-29T05:16:34.900Z,20.05
2022-07-29T05:19:01.409Z,20.05
2022-07-29T05:21:27.822Z,20.08
2022-07-29T05:23:54.153Z,20.15
2022-07-29T05:26:21.926Z,20.26
2022-07-29T05:28:48.267Z,20.42
2022-07-29T05:31:14.597Z,20.48
2022-07-29T05:33:41.821Z,20.51
2022-07-29T05:36:11.748Z,20.55
2022-07-29T05:38:38.211Z,20.56
2022-07-29T05:41:04.520Z,20.58
2022-07-29T05:43:31.016Z,20.79
2022-07-29T05:45:57.635Z,20.99
2022-07-29T05:48:24.028Z,21.02
2022-07-29T05:50:50.736Z,21.13
2022-07-29T05:53:20.013Z,21.32
2022-07-29T05:55:47.354Z,21.37
2022-07-29T05:58:14.148Z,21.17
2022-07-29T06:00:41.549Z,20.95
2022-07-29T06:03:08.353Z,20.87
2022-07-29T06:05:35.111Z,20.86
2022-07-29T06:08:01.508Z,20.83
2022-07-29T06:10:28.249Z,20.86
2022-07-29T06:12:54.573Z,20.90
2022-07-29T06:15:21.033Z,21.01
2022-07-29T06:17:59.111Z,21.07
2022-07-29T06:20:27.517Z,21.13
2022-07-29T06:22:54.902Z,21.18
2022-07-29T06:25:22.441Z,21.22
2022-07-29T06:27:48.816Z,21.23
2022-07-29T06:30:15.231Z,21.39
2022-07-29T06:32:43.437Z,21.53
2022-07-29T06:35:39.193Z,21.47
2022-07-29T06:37:56.319Z,21.56
2022-07-29T06:40:26.018Z,21.65
2022-07-29T06:42:52.446Z,21.76
2022-07-29T06:45:20.160Z,21.70
2022-07-29T06:47:46.512Z,21.76
2022-07-29T06:50:14.224Z,21.74
2022-07-29T06:52:41.610Z,21.80
2022-07-29T06:55:07.991Z,21.82
2022-07-29T06:57:34.301Z,21.83
2022-07-29T07:00:01.720Z,21.88
2022-07-29T07:02:28.136Z,21.90
2022-07-29T07:04:54.642Z,21.86
2022-07-29T07:07:20.988Z,22.12
2022-07-29T07:09:49.806Z,22.11
2022-07-29T07:12:16.175Z,22.02
2022-07-29T07:14:42.797Z,22.04
2022-07-29T07:17:10.182Z,22.51
2022-07-29T07:19:36.589Z,22.70
2022-07-29T07:22:02.958Z,22.55
2022-07-29T07:24:31.003Z,22.31
2022-07-29T07:26:58.206Z,22.21
2022-07-29T07:29:24.603Z,22.21
2022-07-29T07:31:51.275Z,22.26
2022-07-29T07:34:25.709Z,22.21
2022-07-29T07:36:55.859Z,22.15
2022-07-29T07:39:22.347Z,22.12
2022-07-29T07:41:48.767Z,22.04
2022-07-29T07:44:16.244Z,22.03
2022-07-29T07:46:43.894Z,22.00
2022-07-29T07:49:12.590Z,21.99
2022-07-29T07:51:39.070Z,22.06
2022-07-29T07:54:05.520Z,22.02
2022-07-29T07:56:35.164Z,22.07
2022-07-29T07:59:02.988Z,22.05
2022-07-29T08:01:29.571Z,22.00
2022-07-29T08:04:15.028Z,22.06
2022-07-29T08:06:41.704Z,22.15
2022-07-29T08:09:28.121Z,22.38
2022-07-29T08:11:55.537Z,22.52
2022-07-29T08:14:22.089Z,22.57
2022-07-29T08:16:48.559Z,22.61
2022-07-29T08:19:14.946Z,22.65
2022-07-29T08:21:41.969Z,22.69
2022-07-29T08:24:08.348Z,22.74
2022-07-29T08:26:34.648Z,22.79
2022-07-29T08:29:00.950Z,22.83
2022-07-29T08:31:27.428Z,22.86
2022-07-29T08:33:53.852Z,22.89
2022-07-29T08:36:20.193Z,22.92
2022-07-29T08:38:46.798Z,22.94
2022-07-29T08:41:14.343Z,22.95
2022-07-29T08:43:42.134Z,22.97
2022-07-29T08:46:09.136Z,23.00
2022-07-29T08:48:35.982Z,23.03
2022-07-29T08:51:02.524Z,23.03
2022-07-29T08:53:30.644Z,23.05
2022-07-29T08:55:57.016Z,23.05
2022-07-29T08:58:24.629Z,23.07
2022-07-29T09:00:51.708Z,23.07
2022-07-29T09:03:19.491Z,23.09
2022-07-29T09:05:48.285Z,23.10
2022-07-29T09:08:15.882Z,23.10
2022-07-29T09:10:42.669Z,23.10
2022-07-29T09:13:08.966Z,23.11
2022-07-29T09:15:35.820Z,23.10
2022-07-29T09:18:02.148Z,23.12
2022-07-29T09:20:30.556Z,23.12
2022-07-29T09:22:56.834Z,23.13
2022-07-29T09:25:23.693Z,23.15
2022-07-29T09:27:50.994Z,23.17
2022-07-29T09:30:25.610Z,23.17
2022-07-29T09:32:58.339Z,23.17
2022-07-29T09:35:24.683Z,23.18
2022-07-29T09:37:52.089Z,23.20
2022-07-29T09:40:18.539Z,23.21
2022-07-29T09:42:46.080Z,23.21
2022-07-29T09:45:12.429Z,23.21
2022-07-29T09:47:39.823Z,23.22
2022-07-29T09:50:06.163Z,23.23
2022-07-29T09:52:32.487Z,23.24
2022-07-29T09:54:58.920Z,23.24
2022-07-29T09:57:30.333Z,23.27
2022-07-29T09:59:57.713Z,23.28
2022-07-29T10:02:24.378Z,23.31
2022-07-29T10:04:50.757Z,23.32
2022-07-29T10:07:17.251Z,23.37
2022-07-29T10:09:43.588Z,23.41
2022-07-29T10:12:11.085Z,23.47
2022-07-29T10:14:37.493Z,23.53
2022-07-29T10:17:04.085Z,23.56
2022-07-29T10:19:30.667Z,23.58
2022-07-29T10:21:58.216Z,23.60
2022-07-29T10:24:24.846Z,23.62
2022-07-29T10:26:51.713Z,23.64
2022-07-29T10:29:18.792Z,23.68
2022-07-29T10:31:49.160Z,23.69
2022-07-29T10:34:15.552Z,23.73
2022-07-29T10:36:44.237Z,23.77
2022-07-29T10:39:12.705Z,23.80
2022-07-29T10:41:43.933Z,23.83
2022-07-29T10:44:16.095Z,23.87
2022-07-29T10:46:43.783Z,23.93
2022-07-29T10:49:10.461Z,23.96
2022-07-29T10:51:38.666Z,23.99
2022-07-29T10:54:05.022Z,24.04
2022-07-29T10:56:31.647Z,24.14
2022-07-29T10:58:58.290Z,24.13
2022-07-29T11:01:37.126Z,24.18
2022-07-29T11:04:06.308Z,24.24
2022-07-29T11:06:35.003Z,24.29
2022-07-29T11:09:09.372Z,24.32
2022-07-29T11:14:02.697Z,24.33
2022-07-29T11:16:30.818Z,24.39
2022-07-29T11:18:57.332Z,24.43
2022-07-29T11:21:23.713Z,24.48
2022-07-29T11:24:02.448Z,24.50
2022-07-29T11:26:28.758Z,24.51
2022-07-29T11:31:41.832Z,24.58
2022-07-29T11:34:08.665Z,24.62
2022-07-29T11:36:35.230Z,24.66
2022-07-29T11:39:02.381Z,24.73
2022-07-29T11:41:30.092Z,24.78
2022-07-29T11:43:58.143Z,24.80
2022-07-29T11:46:26.007Z,24.80
2022-07-29T11:48:54.775Z,24.82
2022-07-29T11:51:33.150Z,24.88
2022-07-29T11:54:05.325Z,24.91
2022-07-29T11:56:31.933Z,24.98
2022-07-29T11:59:01.492Z,25.04
2022-07-29T12:01:27.979Z,25.08
2022-07-29T12:03:54.471Z,25.11
2022-07-29T12:06:21.397Z,25.11
2022-07-29T12:08:48.430Z,25.12
2022-07-29T12:11:15.173Z,25.16
2022-07-29T12:13:41.932Z,25.20
2022-07-29T12:16:08.255Z,25.27
2022-07-29T12:18:37.608Z,25.32
2022-07-29T12:21:04.897Z,25.36
2022-07-29T12:23:34.785Z,25.36
2022-07-29T12:26:02.216Z,25.40
2022-07-29T12:28:28.654Z,25.45
2022-07-29T12:30:56.189Z,25.50
2022-07-29T12:33:23.289Z,25.53
2022-07-29T12:36:03.531Z,25.55
2022-07-29T12:38:33.589Z,25.56
2022-07-29T12:41:00.322Z,25.59
2022-07-29T12:43:26.647Z,25.60
2022-07-29T12:45:52.944Z,25.60
2022-07-29T12:48:20.631Z,25.63
2022-07-29T12:50:47.167Z,25.65
2022-07-29T12:53:13.584Z,25.67
2022-07-29T12:55:40.716Z,25.69
2022-07-29T12:58:07.052Z,25.70
2022-07-29T13:00:33.371Z,25.73
2022-07-29T13:02:59.814Z,25.75
2022-07-29T13:05:27.384Z,25.75
2022-07-29T13:07:57.357Z,25.75
2022-07-29T13:10:25.449Z,25.74
2022-07-29T13:12:51.782Z,25.76
2022-07-29T13:15:19.257Z,25.77
2022-07-29T13:17:48.068Z,25.78
2022-07-29T13:20:14.507Z,25.81
2022-07-29T13:22:41.038Z,25.84
2022-07-29T13:25:08.562Z,25.85
2022-07-29T13:27:34.964Z,25.84
2022-07-29T13:30:01.252Z,25.85
2022-07-29T13:32:28.356Z,25.87
2022-07-29T13:34:57.061Z,25.90
2022-07-29T13:37:23.340Z,25.93
2022-07-29T13:39:52.754Z,25.93
2022-07-29T13:42:19.531Z,25.94
2022-07-29T13:44:46.207Z,25.95
2022-07-29T13:47:12.975Z,25.96
2022-07-29T13:49:39.362Z,25.98
2022-07-29T13:52:05.770Z,25.98
2022-07-29T13:54:32.095Z,26.00
2022-07-29T13:56:59.195Z,26.02
2022-07-29T13:59:25.491Z,26.03
2022-07-29T14:01:51.872Z,26.04
2022-07-29T14:04:19.138Z,26.04
2022-07-29T14:06:47.274Z,26.05
2022-07-29T14:09:13.987Z,26.08
2022-07-29T14:11:40.273Z,26.09
2022-07-29T14:14:06.654Z,26.08
2022-07-29T14:16:33.177Z,26.09
2022-07-29T14:18:59.762Z,26.10
2022-07-29T14:21:26.338Z,26.10
2022-07-29T14:23:52.998Z,26.13
2022-07-29T14:26:21.757Z,26.12
2022-07-29T14:28:50.624Z,26.14
2022-07-29T14:31:17.580Z,26.16
2022-07-29T14:33:43.895Z,26.17
2022-07-29T14:36:12.772Z,26.18
2022-07-29T14:38:39.050Z,26.18
2022-07-29T14:41:05.975Z,26.16
2022-07-29T14:43:32.658Z,26.15
2022-07-29T14:46:03.971Z,26.16
2022-07-29T14:48:31.623Z,26.16
2022-07-29T14:51:00.843Z,26.16
2022-07-29T14:53:30.635Z,26.18
2022-07-29T14:56:06.050Z,26.19
2022-07-29T14:58:50.171Z,26.22
2022-07-29T15:01:18.378Z,26.22
2022-07-29T15:03:45.412Z,26.24
2022-07-29T15:06:13.893Z,26.23
2022-07-29T15:08:40.205Z,26.24
2022-07-29T15:11:06.536Z,26.26
2022-07-29T15:13:32.957Z,26.26
2022-07-29T15:16:00.333Z,26.24
2022-07-29T15:18:27.635Z,26.28
2022-07-29T15:20:54.930Z,26.29
2022-07-29T15:23:21.191Z,26.30
2022-07-29T15:25:47.501Z,26.30
2022-07-29T15:28:13.876Z,26.31
2022-07-29T15:30:40.316Z,26.30
2022-07-29T15:33:06.634Z,26.31
2022-07-29T15:35:33.093Z,26.31
2022-07-29T15:37:59.984Z,26.30
2022-07-29T15:40:26.350Z,26.29
2022-07-29T15:42:53.038Z,26.29
2022-07-29T15:45:19.367Z,26.27
2022-07-29T15:47:46.098Z,26.25
2022-07-29T15:50:13.276Z,26.24
2022-07-29T15:52:39.616Z,26.23
2022-07-29T15:55:07.608Z,26.24
2022-07-29T15:57:34.129Z,26.23
2022-07-29T16:00:00.456Z,26.24
2022-07-29T16:02:26.755Z,26.22
2022-07-29T16:04:53.597Z,26.21
2022-07-29T16:07:20.648Z,26.22
2022-07-29T16:09:52.470Z,26.21
2022-07-29T16:12:19.352Z,26.22
2022-07-29T16:14:46.223Z,26.21
2022-07-29T16:17:14.847Z,26.22
2022-07-29T16:19:41.901Z,26.22
2022-07-29T16:22:08.783Z,26.21
2022-07-29T16:24:35.462Z,26.22
2022-07-29T16:27:02.196Z,26.20
2022-07-29T16:29:32.081Z,26.20
2022-07-29T16:31:58.784Z,26.19
2022-07-29T16:34:26.592Z,26.17
2022-07-29T16:36:53.251Z,26.17
2022-07-29T16:39:19.911Z,26.18
2022-07-29T16:41:46.310Z,26.16
2022-07-29T16:44:12.680Z,26.16
2022-07-29T16:46:39.109Z,26.17
2022-07-29T16:49:08.925Z,26.16
2022-07-29T16:51:36.351Z,26.15
2022-07-29T16:54:04.157Z,26.15
2022-07-29T16:56:30.506Z,26.15
2022-07-29T16:58:56.863Z,26.13
2022-07-29T17:01:23.447Z,26.15
2022-07-29T17:03:49.925Z,26.12
2022-07-29T17:06:16.624Z,26.13
2022-07-29T17:08:44.041Z,26.12
2022-07-29T17:11:10.638Z,26.12
2022-07-29T17:13:36.976Z,26.12
2022-07-29T17:16:03.906Z,26.12
2022-07-29T17:18:30.283Z,26.10
2022-07-29T17:20:58.733Z,26.09
2022-07-29T17:23:28.837Z,26.09
2022-07-29T17:25:55.154Z,26.08
2022-07-29T17:28:21.438Z,26.07
2022-07-29T17:30:47.832Z,26.05
2022-07-29T17:33:15.000Z,26.05
2022-07-29T17:35:43.578Z,26.05
2022-07-29T17:38:10.153Z,26.05
2022-07-29T17:40:36.848Z,26.03
2022-07-29T17:43:03.272Z,26.02
2022-07-29T17:45:49.935Z,26.01
2022-07-29T17:48:17.896Z,26.00
2022-07-29T17:50:44.265Z,25.99
2022-07-29T17:53:15.967Z,25.98
2022-07-29T17:55:43.451Z,25.97
2022-07-29T17:58:09.744Z,25.95
2022-07-29T18:00:37.091Z,25.94
2022-07-29T18:03:04.302Z,25.90
2022-07-29T18:05:31.362Z,25.88
2022-07-29T18:07:57.676Z,25.87
2022-07-29T18:10:24.754Z,25.85
2022-07-29T18:12:52.073Z,25.84
2022-07-29T18:15:18.563Z,25.83
2022-07-29T18:17:57.033Z,25.83
2022-07-29T18:20:25.957Z,25.82
2022-07-29T18:22:52.280Z,25.82
2022-07-29T18:25:18.815Z,25.81
2022-07-29T18:27:45.121Z,25.80
2022-07-29T18:30:12.033Z,25.79
2022-07-29T18:32:38.358Z,25.76
2022-07-29T18:35:04.732Z,25.76
2022-07-29T18:38:01.697Z,25.77
2022-07-29T18:40:18.363Z,25.75
2022-07-29T18:42:44.731Z,25.73
2022-07-29T18:45:16.803Z,25.75
2022-07-29T18:47:47.493Z,25.75
2022-07-29T18:50:13.900Z,25.76
2022-07-29T18:52:40.384Z,25.77
2022-07-29T18:55:07.111Z,25.78
2022-07-29T18:57:55.484Z,25.77
2022-07-29T19:00:19.848Z,25.75
2022-07-29T19:02:47.525Z,25.73
2022-07-29T19:05:15.512Z,25.68
2022-07-29T19:07:42.535Z,25.67
2022-07-29T19:10:11.858Z,25.65
2022-07-29T19:12:39.921Z,25.61
2022-07-29T19:15:06.554Z,25.63
2022-07-29T19:17:33.379Z,25.58
2022-07-29T19:19:59.914Z,25.56
2022-07-29T19:22:26.331Z,25.54
2022-07-29T19:24:52.669Z,25.53
2022-07-29T19:27:19.080Z,25.49
2022-07-29T19:29:45.653Z,25.45
2022-07-29T19:32:11.977Z,25.44
2022-07-29T19:34:38.327Z,25.42
2022-07-29T19:37:04.642Z,25.39
2022-07-29T19:39:34.712Z,25.36
2022-07-29T19:42:03.473Z,25.34
2022-07-29T19:44:29.970Z,25.29
2022-07-29T19:46:59.567Z,25.26
2022-07-29T19:49:26.795Z,25.23
2022-07-29T19:51:53.343Z,25.20
2022-07-29T19:54:20.702Z,25.18
2022-07-29T19:56:47.101Z,25.16
2022-07-29T19:59:13.420Z,25.14
2022-07-29T20:01:39.951Z,25.11
2022-07-29T20:04:06.730Z,25.08
2022-07-29T20:06:33.073Z,25.07
2022-07-29T20:08:59.728Z,25.04
2022-07-29T20:11:26.000Z,25.01
2022-07-29T20:13:53.159Z,24.97
2022-07-29T20:16:19.726Z,24.95
2022-07-29T20:18:46.152Z,24.91
2022-07-29T20:21:12.668Z,24.90
2022-07-29T20:23:39.032Z,24.88
2022-07-29T20:26:09.399Z,24.87
2022-07-29T20:28:36.285Z,24.84
2022-07-29T20:31:02.645Z,24.84
2022-07-29T20:33:28.957Z,24.81
2022-07-29T20:35:55.418Z,24.80
2022-07-29T20:38:21.929Z,24.77
2022-07-29T20:40:48.154Z,24.76
2022-07-29T20:43:14.509Z,24.75
2022-07-29T20:45:42.222Z,24.73
2022-07-29T20:48:08.951Z,24.71
2022-07-29T20:50:35.280Z,24.70
2022-07-29T20:53:01.580Z,24.67
2022-07-29T20:55:28.007Z,24.67
2022-07-29T20:57:54.682Z,24.64
2022-07-29T21:00:22.183Z,24.63
2022-07-29T21:02:48.663Z,24.62
2022-07-29T21:05:15.088Z,24.59
2022-07-29T21:07:42.556Z,24.58
2022-07-29T21:10:09.404Z,24.56
2022-07-29T21:12:35.923Z,24.53
2022-07-29T21:15:03.361Z,24.51
2022-07-29T21:17:29.703Z,24.49
2022-07-29T21:19:56.011Z,24.48
2022-07-29T21:22:22.529Z,24.46
2022-07-29T21:24:48.977Z,24.44
2022-07-29T21:27:20.615Z,24.42
2022-07-29T21:29:47.840Z,24.39
2022-07-29T21:32:14.298Z,24.39
2022-07-29T21:34:54.022Z,24.37
2022-07-29T21:37:20.338Z,24.36
2022-07-29T21:39:46.716Z,24.34
2022-07-29T21:42:13.013Z,24.32
2022-07-29T21:44:39.484Z,24.31
2022-07-29T21:47:05.792Z,24.30
2022-07-29T21:49:32.289Z,24.27
2022-07-29T21:51:58.697Z,24.27
2022-07-29T21:54:26.003Z,24.25
2022-07-29T21:56:54.413Z,24.24
2022-07-29T21:59:22.010Z,24.22
2022-07-29T22:01:48.499Z,24.21
2022-07-29T22:04:14.884Z,24.19
2022-07-29T22:06:41.305Z,24.18
2022-07-29T22:09:07.616Z,24.16
2022-07-29T22:11:34.017Z,24.15
2022-07-29T22:14:00.386Z,24.16
2022-07-29T22:16:26.775Z,24.13
2022-07-29T22:18:53.328Z,24.12
2022-07-29T22:21:19.657Z,24.09
2022-07-29T22:23:46.026Z,24.08
2022-07-29T22:26:12.481Z,24.07
2022-07-29T22:28:39.000Z,24.06
2022-07-29T22:31:06.928Z,24.04
2022-07-29T22:33:33.379Z,24.03
2022-07-29T22:35:59.686Z,24.03
2022-07-29T22:38:26.196Z,24.01
2022-07-29T22:40:52.555Z,24.00
2022-07-29T22:43:19.125Z,23.99
2022-07-29T22:45:45.594Z,23.97
2022-07-29T22:48:11.954Z,23.96
2022-07-29T22:50:38.561Z,23.94
2022-07-29T22:53:04.881Z,23.93
2022-07-29T22:55:31.233Z,23.93
2022-07-29T22:57:57.506Z,23.92
2022-07-29T23:00:23.868Z,23.90
2022-07-29T23:02:50.581Z,23.87
2022-07-29T23:05:16.939Z,23.88
2022-07-29T23:07:43.365Z,23.86
2022-07-29T23:10:09.693Z,23.87
2022-07-29T23:12:36.035Z,23.84
2022-07-29T23:15:02.334Z,23.84
2022-07-29T23:17:30.933Z,23.82
2022-07-29T23:20:02.714Z,23.80
2022-07-29T23:22:29.123Z,23.80
2022-07-29T23:24:55.482Z,23.79
2022-07-29T23:27:21.762Z,23.79
2022-07-29T23:29:49.648Z,23.77
2022-07-29T23:32:16.825Z,23.75
2022-07-29T23:34:43.524Z,23.74
2022-07-29T23:37:10.110Z,23.74
2022-07-29T23:39:36.459Z,23.73
2022-07-29T23:42:02.739Z,23.70
2022-07-29T23:44:29.017Z,23.71
2022-07-29T23:46:55.363Z,23.71
2022-07-29T23:49:21.787Z,23.69
2022-07-29T23:51:48.172Z,23.68
2022-07-29T23:54:14.488Z,23.66
2022-07-29T23:56:40.811Z,23.66
2022-07-29T23:59:07.497Z,23.64
